Main page
METAR-TAF:

METAR-TAF

Airports :

Ghedi Air Base

Brescia Ghedi, Italy

latitude: 45-25N, longitude: 010-17E, elevation: 102 m

Current weather observation

The report was made 55 minutes ago, at 00:55 UTC
Wind 3 kt from the East/Northeast
Temperature 0°C
Humidity 93%
Pressure 1015 hPa
Visibility 10 km or more
Scattered clouds at a height of 7000 ft

METAR: LIPL 200055Z 07003KT 9999 SCT070 00/M01 Q1015 RMK BKN VIS MIN 9999 WIND THR31 05004KT WIND THR13 09003KT BLU

Time: 02:50 (01:50 UTC)

Forecast

The report was made 2 hours and 50 minutes ago, at 23:00 UTC
Forecast valid from 20 at 00 UTC to 20 at 09 UTC
Wind 3 kt from variable directions
Visibility 10 km or more
Broken clouds at a height of 6000 ft
Temporary
from 20 at 00 UTC to 20 at 06 UTC
Visibility: 5000 m
mist

TAF: LIPL 192300Z 2000/2009 VRB03KT 9999 BKN060 TEMPO 2000/2006 5000 BR

Weather observations and forecasts of more than 4000 airports (METAR and TAF reports).

The available stations are represented by yellow and red dots on the map.

Hover mouse over dot to see the name of the station.

Then click to see weather observations and forecasts.

To change the map : click on the green buttons with a black cross to zoom in, on the green button with a dash to zoom out, or on the green arrows for adjacent maps.


METAR-TAF: